Time;durP1;ratioP1;P1;durP2;ratioP2;P2;SDS_P1;SDS_P2;PMS_P1;PMS_P2;Temp;Humidity;BMP_temperature;BMP_pressure;BME280_temperature;BME280_humidity;BME280_pressure;Samples;Min_cycle;Max_cycle;Signal;HPM_P1;HPM_P2
2023/12/15 00:01:10;;;;;;;3.40;2.50;;;;;;;;;;5061821;27;87490;-77
2023/12/15 00:03:39;;;;;;;4.50;2.37;;;;;;;;;;5062043;27;89804;-77
2023/12/15 00:06:07;;;;;;;4.50;2.77;;;;;;;;;;5061781;27;88860;-77
2023/12/15 00:08:36;;;;;;;4.23;2.47;;;;;;;;;;5061293;27;87563;-76
2023/12/15 00:11:06;;;;;;;3.40;2.57;;;;;;;;;;5062147;27;87586;-75
2023/12/15 00:13:34;;;;;;;2.83;2.53;;;;;;;;;;5062039;27;89394;-75
2023/12/15 00:16:02;;;;;;;4.23;2.80;;;;;;;;;;5062247;27;89156;-76
2023/12/15 00:18:31;;;;;;;4.13;3.33;;;;;;;;;;5059277;27;88033;-76
2023/12/15 00:20:59;;;;;;;3.07;2.47;;;;;;;;;;5062379;27;87758;-76
2023/12/15 00:23:27;;;;;;;5.63;3.33;;;;;;;;;;5057420;27;89827;-76
2023/12/15 00:25:56;;;;;;;5.80;3.57;;;;;;;;;;5061916;27;89151;-76
2023/12/15 00:28:26;;;;;;;4.30;3.43;;;;;;;;;;5060923;27;88588;-76
2023/12/15 00:30:54;;;;;;;7.07;3.47;;;;;;;;;;5042174;28;87647;-76
2023/12/15 00:33:22;;;;;;;6.27;3.57;;;;;;;;;;5054553;27;89742;-76
2023/12/15 00:35:51;;;;;;;3.83;2.93;;;;;;;;;;5060800;27;89218;-76
2023/12/15 00:38:19;;;;;;;7.47;4.57;;;;;;;;;;5061883;27;87542;-75
2023/12/15 00:40:49;;;;;;;5.13;4.00;;;;;;;;;;5060557;27;87556;-75
2023/12/15 00:43:18;;;;;;;6.00;4.13;;;;;;;;;;5059305;27;89638;-76
2023/12/15 00:45:47;;;;;;;8.67;4.03;;;;;;;;;;5059499;27;89027;-76
2023/12/15 00:48:16;;;;;;;7.30;4.50;;;;;;;;;;5056790;27;87482;-75
2023/12/15 00:50:45;;;;;;;5.60;3.47;;;;;;;;;;5061212;27;87722;-75
2023/12/15 00:53:15;;;;;;;10.27;4.07;;;;;;;;;;5058487;27;89623;-75
2023/12/15 00:55:44;;;;;;;7.30;4.43;;;;;;;;;;5060474;27;89181;-75
2023/12/15 00:58:14;;;;;;;7.17;4.80;;;;;;;;;;5061111;27;87714;-75
2023/12/15 01:00:43;;;;;;;10.77;5.20;;;;;;;;;;5061417;27;89370;-75
2023/12/15 01:03:13;;;;;;;6.03;4.17;;;;;;;;;;5060688;27;89577;-75
2023/12/15 01:05:41;;;;;;;8.40;4.73;;;;;;;;;;5060550;27;88858;-75
2023/12/15 01:08:11;;;;;;;6.70;5.00;;;;;;;;;;5065242;27;87528;-76
2023/12/15 01:10:39;;;;;;;8.53;5.47;;;;;;;;;;5063447;27;87648;-75
2023/12/15 01:13:07;;;;;;;9.37;5.80;;;;;;;;;;5064212;27;92696;-76
2023/12/15 01:15:37;;;;;;;9.80;5.73;;;;;;;;;;5064834;27;90133;-75
2023/12/15 01:18:08;;;;;;;9.50;6.27;;;;;;;;;;5064564;27;88029;-75
2023/12/15 01:20:38;;;;;;;9.50;6.17;;;;;;;;;;5064735;27;87512;-74
2023/12/15 01:23:06;;;;;;;9.87;6.73;;;;;;;;;;5064694;27;89675;-74
2023/12/15 01:25:36;;;;;;;11.93;7.80;;;;;;;;;;5063878;27;88974;-76
2023/12/15 01:28:05;;;;;;;9.93;6.33;;;;;;;;;;5063821;27;87566;-75
2023/12/15 01:30:34;;;;;;;11.43;7.47;;;;;;;;;;5064303;27;87430;-76
2023/12/15 01:33:02;;;;;;;11.07;7.03;;;;;;;;;;5061575;27;89491;-76
2023/12/15 01:35:30;;;;;;;13.67;7.27;;;;;;;;;;5063455;27;89531;-74
2023/12/15 01:38:00;;;;;;;15.83;9.00;;;;;;;;;;5063741;27;87430;-75
2023/12/15 01:40:29;;;;;;;12.17;7.80;;;;;;;;;;5063341;27;87644;-76
2023/12/15 01:42:59;;;;;;;11.53;7.87;;;;;;;;;;5063595;27;89678;-75
2023/12/15 01:45:28;;;;;;;10.33;7.60;;;;;;;;;;5063779;27;87679;-76
2023/12/15 01:47:57;;;;;;;12.17;9.30;;;;;;;;;;5063592;27;87629;-76
2023/12/15 01:50:28;;;;;;;12.17;8.73;;;;;;;;;;5061134;27;87637;-75
2023/12/15 01:52:57;;;;;;;12.50;8.07;;;;;;;;;;5063098;27;89637;-74
2023/12/15 01:55:26;;;;;;;13.17;7.40;;;;;;;;;;5061312;27;89046;-74
2023/12/15 01:57:59;;;;;;;10.83;8.03;;;;;;;;;;5064000;27;87478;-75
2023/12/15 02:00:28;;;;;;;14.17;8.37;;;;;;;;;;5061567;27;87523;-75
2023/12/15 02:02:56;;;;;;;13.93;8.67;;;;;;;;;;5062763;27;89335;-75
2023/12/15 02:05:24;;;;;;;15.37;9.43;;;;;;;;;;5060422;27;88997;-76
2023/12/15 02:07:54;;;;;;;13.67;9.37;;;;;;;;;;5063145;27;87575;-76
2023/12/15 02:10:23;;;;;;;12.30;8.87;;;;;;;;;;5062335;27;87673;-76
2023/12/15 02:12:54;;;;;;;16.27;9.37;;;;;;;;;;5062510;27;89818;-75
2023/12/15 02:15:23;;;;;;;14.57;9.93;;;;;;;;;;5062807;27;89303;-75
2023/12/15 02:17:53;;;;;;;17.00;9.43;;;;;;;;;;5062604;27;87480;-75
2023/12/15 02:20:22;;;;;;;13.20;10.00;;;;;;;;;;5062723;27;87605;-75
2023/12/15 02:22:51;;;;;;;17.80;10.47;;;;;;;;;;5061905;27;88382;-75
2023/12/15 02:25:20;;;;;;;14.63;10.57;;;;;;;;;;5061376;27;89082;-75
2023/12/15 02:27:49;;;;;;;16.67;11.10;;;;;;;;;;5062107;27;88681;-75
2023/12/15 02:30:18;;;;;;;18.33;9.83;;;;;;;;;;5061772;27;87472;-75
2023/12/15 02:32:47;;;;;;;16.47;11.17;;;;;;;;;;5060884;27;89442;-75
2023/12/15 02:35:16;;;;;;;20.57;11.00;;;;;;;;;;5061156;27;89102;-75
2023/12/15 02:37:46;;;;;;;15.90;9.60;;;;;;;;;;5061654;27;87407;-75
2023/12/15 02:40:16;;;;;;;18.20;11.03;;;;;;;;;;5063065;27;87481;-75
2023/12/15 02:42:44;;;;;;;16.27;10.60;;;;;;;;;;5057961;27;90680;-75
2023/12/15 02:45:15;;;;;;;23.60;10.17;;;;;;;;;;5060867;27;89087;-75
2023/12/15 02:47:43;;;;;;;14.43;9.33;;;;;;;;;;5061935;27;87586;-75
2023/12/15 02:50:12;;;;;;;17.37;10.17;;;;;;;;;;5063361;27;87528;-76
2023/12/15 02:52:41;;;;;;;14.70;9.23;;;;;;;;;;5061926;27;88585;-75
2023/12/15 02:55:11;;;;;;;19.37;10.70;;;;;;;;;;5061070;27;89038;-75
2023/12/15 02:57:40;;;;;;;16.20;10.30;;;;;;;;;;5062649;27;87320;-75
2023/12/15 03:00:09;;;;;;;15.40;9.80;;;;;;;;;;5062203;27;87293;-76
2023/12/15 03:02:37;;;;;;;18.93;10.73;;;;;;;;;;5063594;27;90325;-76
2023/12/15 03:05:06;;;;;;;15.10;10.43;;;;;;;;;;5061542;27;89043;-75
2023/12/15 03:07:35;;;;;;;16.37;10.87;;;;;;;;;;5060968;27;88932;-75
2023/12/15 03:10:03;;;;;;;15.20;10.80;;;;;;;;;;5061288;27;87960;-76
2023/12/15 03:12:32;;;;;;;18.93;9.50;;;;;;;;;;5060035;27;89546;-76
2023/12/15 03:15:02;;;;;;;18.10;10.43;;;;;;;;;;5053984;27;89872;-76
2023/12/15 03:17:30;;;;;;;19.23;10.30;;;;;;;;;;5054205;27;90487;-76
2023/12/15 03:19:59;;;;;;;17.70;10.47;;;;;;;;;;5045314;27;87618;-74
2023/12/15 03:22:27;;;;;;;17.30;10.07;;;;;;;;;;5057004;27;88603;-75
2023/12/15 03:24:55;;;;;;;15.17;9.57;;;;;;;;;;5058053;27;89051;-74
2023/12/15 03:27:24;;;;;;;15.70;9.60;;;;;;;;;;5058900;27;88989;-75
2023/12/15 03:29:52;;;;;;;14.50;9.13;;;;;;;;;;5059500;27;87637;-75
2023/12/15 03:32:22;;;;;;;18.20;9.90;;;;;;;;;;5057593;27;89635;-76
2023/12/15 03:34:50;;;;;;;13.97;8.53;;;;;;;;;;5057734;27;88834;-77
2023/12/15 03:37:20;;;;;;;14.80;9.73;;;;;;;;;;5059136;27;88940;-76
2023/12/15 03:39:50;;;;;;;14.13;8.67;;;;;;;;;;5057447;27;89377;-75
2023/12/15 03:42:19;;;;;;;15.83;9.93;;;;;;;;;;5058889;27;90463;-76
2023/12/15 03:44:47;;;;;;;13.77;9.00;;;;;;;;;;5057381;27;89135;-76
2023/12/15 03:47:17;;;;;;;19.53;9.63;;;;;;;;;;5058465;27;88803;-75
2023/12/15 03:49:47;;;;;;;23.00;10.53;;;;;;;;;;5056625;27;87640;-76
2023/12/15 03:52:15;;;;;;;13.90;8.97;;;;;;;;;;5056187;27;89674;-76
2023/12/15 03:54:44;;;;;;;16.00;9.43;;;;;;;;;;5057351;27;89288;-76
2023/12/15 03:57:12;;;;;;;15.97;11.00;;;;;;;;;;5056383;27;89663;-75
2023/12/15 03:59:40;;;;;;;14.43;9.53;;;;;;;;;;5055898;27;87432;-75
2023/12/15 04:02:14;;;;;;;15.73;10.80;;;;;;;;;;5057931;27;89695;-74
2023/12/15 04:04:44;;;;;;;18.43;10.17;;;;;;;;;;5053218;27;90123;-74
2023/12/15 04:07:14;;;;;;;15.70;9.53;;;;;;;;;;5054953;27;89712;-73
2023/12/15 04:09:44;;;;;;;16.93;9.30;;;;;;;;;;5054725;27;88561;-75
2023/12/15 04:12:13;;;;;;;17.37;9.20;;;;;;;;;;5057080;27;92943;-74
2023/12/15 04:14:41;;;;;;;17.20;10.50;;;;;;;;;;5057886;27;89083;-74
2023/12/15 04:17:10;;;;;;;17.93;10.37;;;;;;;;;;5054348;27;89333;-74
2023/12/15 04:19:38;;;;;;;15.93;8.73;;;;;;;;;;5058147;27;88395;-76
2023/12/15 04:22:07;;;;;;;17.60;10.97;;;;;;;;;;5060789;27;89589;-76
2023/12/15 04:24:36;;;;;;;18.73;10.50;;;;;;;;;;5059519;27;89142;-76
2023/12/15 04:27:07;;;;;;;16.40;10.43;;;;;;;;;;5059339;27;88989;-75
2023/12/15 04:29:35;;;;;;;17.03;10.47;;;;;;;;;;5059696;27;87887;-75
2023/12/15 04:32:04;;;;;;;14.63;9.57;;;;;;;;;;5059969;27;88506;-75
2023/12/15 04:34:33;;;;;;;17.07;9.80;;;;;;;;;;5061070;27;89082;-75
2023/12/15 04:37:01;;;;;;;14.70;10.23;;;;;;;;;;5060278;27;89011;-75
2023/12/15 04:39:30;;;;;;;19.17;11.50;;;;;;;;;;5060001;27;88344;-75
2023/12/15 04:42:00;;;;;;;15.07;9.90;;;;;;;;;;5058714;27;89648;-74
2023/12/15 04:44:28;;;;;;;15.77;9.73;;;;;;;;;;5060023;27;89119;-74
2023/12/15 04:46:58;;;;;;;15.80;9.87;;;;;;;;;;5060187;27;88682;-75
2023/12/15 04:49:27;;;;;;;15.70;9.27;;;;;;;;;;5059689;27;87576;-74
2023/12/15 04:51:56;;;;;;;18.53;10.70;;;;;;;;;;5060470;27;89809;-75
2023/12/15 04:54:25;;;;;;;19.10;9.00;;;;;;;;;;5057352;27;90220;-75
2023/12/15 04:56:55;;;;;;;16.60;9.80;;;;;;;;;;5059357;27;89741;-75
2023/12/15 04:59:25;;;;;;;14.67;9.60;;;;;;;;;;5060048;27;87622;-74
2023/12/15 05:01:53;;;;;;;14.80;8.73;;;;;;;;;;5060068;27;89930;-75
2023/12/15 05:04:22;;;;;;;14.97;9.57;;;;;;;;;;5060447;27;89071;-74
2023/12/15 05:06:50;;;;;;;16.33;9.30;;;;;;;;;;5060842;27;91201;-75
2023/12/15 05:09:18;;;;;;;20.40;11.27;;;;;;;;;;5060036;27;87821;-75
2023/12/15 05:11:47;;;;;;;16.50;9.60;;;;;;;;;;5059450;27;89723;-74
2023/12/15 05:14:16;;;;;;;14.73;8.67;;;;;;;;;;5060402;27;89010;-75
2023/12/15 05:16:46;;;;;;;16.47;9.30;;;;;;;;;;5059115;27;88850;-74
2023/12/15 05:19:14;;;;;;;14.77;7.57;;;;;;;;;;5060139;27;87975;-74
2023/12/15 05:21:42;;;;;;;13.90;8.50;;;;;;;;;;5060420;27;88528;-74
2023/12/15 05:24:11;;;;;;;19.57;8.63;;;;;;;;;;5060012;27;89124;-74
2023/12/15 05:26:39;;;;;;;11.30;7.33;;;;;;;;;;5060212;27;88872;-74
2023/12/15 05:29:10;;;;;;;9.83;7.23;;;;;;;;;;5060071;27;87404;-74
2023/12/15 05:31:39;;;;;;;15.73;8.67;;;;;;;;;;5060109;27;89802;-74
2023/12/15 05:34:10;;;;;;;13.90;7.67;;;;;;;;;;5060128;27;89081;-74
2023/12/15 05:36:40;;;;;;;14.57;7.97;;;;;;;;;;5060566;27;89113;-74
2023/12/15 05:39:08;;;;;;;11.67;7.43;;;;;;;;;;5060172;27;87612;-74
2023/12/15 05:41:42;;;;;;;13.07;7.47;;;;;;;;;;5059348;27;89753;-75
2023/12/15 05:44:12;;;;;;;15.13;8.20;;;;;;;;;;5059710;27;90165;-75
2023/12/15 05:46:42;;;;;;;13.30;7.60;;;;;;;;;;5060077;27;89909;-75
2023/12/15 05:49:12;;;;;;;13.13;7.70;;;;;;;;;;5059249;27;87592;-75
2023/12/15 05:51:40;;;;;;;11.83;7.30;;;;;;;;;;5060349;27;89565;-75
2023/12/15 05:54:10;;;;;;;13.70;8.37;;;;;;;;;;5061739;27;89027;-74
2023/12/15 05:56:38;;;;;;;14.07;8.67;;;;;;;;;;5063457;27;88910;-74
2023/12/15 05:59:06;;;;;;;14.47;8.17;;;;;;;;;;5062612;27;87586;-74
2023/12/15 06:01:34;;;;;;;11.67;6.80;;;;;;;;;;5063075;27;89632;-74
2023/12/15 06:04:03;;;;;;;16.50;7.70;;;;;;;;;;5062834;27;89107;-75
2023/12/15 06:06:33;;;;;;;14.70;7.30;;;;;;;;;;5059279;27;88918;-74
2023/12/15 06:09:02;;;;;;;14.40;7.57;;;;;;;;;;5062772;27;87851;-74
2023/12/15 06:11:32;;;;;;;13.30;7.53;;;;;;;;;;5051087;27;89722;-75
2023/12/15 06:14:01;;;;;;;13.30;7.57;;;;;;;;;;5063408;27;92013;-75
2023/12/15 06:16:29;;;;;;;11.67;7.07;;;;;;;;;;5062824;27;88696;-75
2023/12/15 06:18:59;;;;;;;9.30;6.13;;;;;;;;;;5063536;27;87290;-75
2023/12/15 06:21:28;;;;;;;11.27;6.57;;;;;;;;;;5062218;27;92316;-75
2023/12/15 06:23:57;;;;;;;12.13;6.63;;;;;;;;;;5062048;27;89135;-74
2023/12/15 06:26:27;;;;;;;8.93;5.90;;;;;;;;;;5062643;27;89004;-76
2023/12/15 06:28:55;;;;;;;10.17;6.50;;;;;;;;;;5062106;27;87397;-75
2023/12/15 06:31:25;;;;;;;14.50;7.80;;;;;;;;;;5062671;27;92557;-75
2023/12/15 06:33:54;;;;;;;8.90;5.33;;;;;;;;;;5042051;27;89999;-75
2023/12/15 06:36:23;;;;;;;8.60;5.33;;;;;;;;;;5061776;27;90094;-75
2023/12/15 06:38:54;;;;;;;10.43;5.30;;;;;;;;;;5062396;27;87560;-74
2023/12/15 06:41:24;;;;;;;8.50;5.13;;;;;;;;;;5061169;27;92306;-75
2023/12/15 06:43:53;;;;;;;8.40;6.20;;;;;;;;;;5062014;27;89234;-74
2023/12/15 06:46:23;;;;;;;13.37;5.50;;;;;;;;;;5062310;27;87736;-74
2023/12/15 06:48:53;;;;;;;11.33;5.50;;;;;;;;;;5062385;27;87587;-74
2023/12/15 06:51:21;;;;;;;10.83;5.27;;;;;;;;;;5062029;27;89672;-75
2023/12/15 06:53:50;;;;;;;8.03;5.27;;;;;;;;;;5061110;27;89200;-74
2023/12/15 06:56:21;;;;;;;7.00;5.40;;;;;;;;;;5061776;27;88729;-74
2023/12/15 06:58:51;;;;;;;8.77;4.53;;;;;;;;;;5061756;27;87870;-74
2023/12/15 07:01:21;;;;;;;10.10;5.03;;;;;;;;;;5061416;27;89826;-75
2023/12/15 07:03:50;;;;;;;7.53;4.67;;;;;;;;;;5061851;27;89133;-75
2023/12/15 07:06:20;;;;;;;10.47;4.83;;;;;;;;;;5061525;27;90292;-74
2023/12/15 07:08:53;;;;;;;10.53;4.80;;;;;;;;;;5061970;27;88647;-74
2023/12/15 07:11:22;;;;;;;5.93;4.53;;;;;;;;;;5058951;27;89957;-74
2023/12/15 07:13:51;;;;;;;8.23;4.90;;;;;;;;;;5061332;27;89503;-75
2023/12/15 07:16:20;;;;;;;9.47;4.70;;;;;;;;;;5068649;27;89040;-75
2023/12/15 07:18:48;;;;;;;8.60;4.73;;;;;;;;;;5063099;27;87605;-75
2023/12/15 07:21:17;;;;;;;7.67;4.00;;;;;;;;;;5061689;27;89652;-75
2023/12/15 07:23:45;;;;;;;13.80;4.77;;;;;;;;;;5060818;27;90055;-75
2023/12/15 07:26:13;;;;;;;7.60;4.07;;;;;;;;;;5060805;27;89770;-75
2023/12/15 07:28:42;;;;;;;5.10;3.63;;;;;;;;;;5060662;27;87601;-72
2023/12/15 07:31:11;;;;;;;6.63;4.20;;;;;;;;;;5060539;27;89780;-73
2023/12/15 07:33:41;;;;;;;6.33;4.90;;;;;;;;;;5061919;27;88877;-73
2023/12/15 07:36:10;;;;;;;7.80;4.13;;;;;;;;;;5053740;27;88606;-72
2023/12/15 07:38:39;;;;;;;8.27;5.57;;;;;;;;;;5061530;27;87557;-74
2023/12/15 07:41:09;;;;;;;10.77;4.57;;;;;;;;;;5060857;27;89899;-73
2023/12/15 07:43:38;;;;;;;7.80;4.60;;;;;;;;;;5058748;27;89814;-73
2023/12/15 07:46:07;;;;;;;10.13;4.73;;;;;;;;;;5061178;27;88740;-72
2023/12/15 07:48:36;;;;;;;9.50;4.57;;;;;;;;;;5058456;27;88121;-72
2023/12/15 07:51:05;;;;;;;9.93;5.03;;;;;;;;;;5059321;27;89602;-72
2023/12/15 07:53:34;;;;;;;9.67;5.60;;;;;;;;;;5060261;27;87956;-72
2023/12/15 07:56:03;;;;;;;5.30;3.87;;;;;;;;;;5058957;27;88809;-72
2023/12/15 07:58:31;;;;;;;9.27;4.27;;;;;;;;;;5060787;27;87965;-72
2023/12/15 08:00:59;;;;;;;7.20;4.20;;;;;;;;;;5060208;27;89578;-72
2023/12/15 08:03:28;;;;;;;8.93;4.20;;;;;;;;;;5060134;27;88111;-72
2023/12/15 08:05:57;;;;;;;6.70;4.10;;;;;;;;;;5060045;27;88926;-72
2023/12/15 08:08:29;;;;;;;7.17;4.23;;;;;;;;;;5060734;27;87698;-73
2023/12/15 08:10:57;;;;;;;7.47;3.97;;;;;;;;;;5060276;27;89336;-73
2023/12/15 08:13:30;;;;;;;9.40;4.67;;;;;;;;;;5060165;27;92871;-73
2023/12/15 08:15:58;;;;;;;7.57;3.87;;;;;;;;;;5058439;27;90033;-73
2023/12/15 08:18:27;;;;;;;8.03;4.13;;;;;;;;;;5059999;27;89244;-73
2023/12/15 08:20:56;;;;;;;6.83;4.63;;;;;;;;;;5060021;27;89611;-73
2023/12/15 08:23:25;;;;;;;7.53;3.77;;;;;;;;;;5059131;27;89129;-70
2023/12/15 08:25:54;;;;;;;6.00;4.03;;;;;;;;;;5059193;27;88301;-73
2023/12/15 08:28:24;;;;;;;6.97;3.60;;;;;;;;;;5060224;27;87775;-72
2023/12/15 08:30:54;;;;;;;8.50;4.20;;;;;;;;;;5059202;27;89701;-72
2023/12/15 08:33:23;;;;;;;9.10;5.17;;;;;;;;;;5060644;27;89099;-71
2023/12/15 08:35:53;;;;;;;6.27;4.77;;;;;;;;;;5060111;27;89165;-72
2023/12/15 08:38:22;;;;;;;10.07;4.80;;;;;;;;;;5060896;27;87937;-73
2023/12/15 08:40:52;;;;;;;9.83;4.80;;;;;;;;;;5058705;27;89714;-72
2023/12/15 08:43:22;;;;;;;6.77;4.70;;;;;;;;;;5055244;27;89859;-72
2023/12/15 08:45:52;;;;;;;6.80;4.37;;;;;;;;;;5059044;27;87745;-73
2023/12/15 08:48:22;;;;;;;7.30;4.20;;;;;;;;;;5056998;27;87707;-73
2023/12/15 08:50:53;;;;;;;6.83;4.70;;;;;;;;;;5059048;27;90351;-72
2023/12/15 08:53:21;;;;;;;7.13;4.30;;;;;;;;;;5057786;27;89018;-73
2023/12/15 08:55:49;;;;;;;6.17;4.50;;;;;;;;;;5059453;27;87651;-73
2023/12/15 08:58:21;;;;;;;4.00;3.20;;;;;;;;;;5061095;27;87639;-73
2023/12/15 09:00:50;;;;;;;5.60;4.07;;;;;;;;;;5059384;27;89364;-73
2023/12/15 09:03:19;;;;;;;5.33;3.60;;;;;;;;;;5059478;27;89904;-72
2023/12/15 09:05:47;;;;;;;6.07;4.20;;;;;;;;;;5058809;27;89892;-69
2023/12/15 09:08:36;;;;;;;5.73;4.03;;;;;;;;;;5058973;27;87282;-72
2023/12/15 09:11:06;;;;;;;5.00;3.77;;;;;;;;;;5059712;27;89600;-71
2023/12/15 09:13:35;;;;;;;5.43;3.73;;;;;;;;;;5059349;27;89158;-72
2023/12/15 09:16:04;;;;;;;4.87;3.77;;;;;;;;;;5059691;27;88844;-72
2023/12/15 09:18:32;;;;;;;6.40;3.73;;;;;;;;;;5062451;27;89724;-72
2023/12/15 09:21:03;;;;;;;6.70;3.13;;;;;;;;;;5058186;27;89674;-74
2023/12/15 09:23:33;;;;;;;4.57;3.23;;;;;;;;;;5059156;27;89633;-71
2023/12/15 09:26:02;;;;;;;6.33;2.80;;;;;;;;;;5058873;27;88093;-71
2023/12/15 09:28:32;;;;;;;5.33;2.67;;;;;;;;;;5061117;27;88544;-68
2023/12/15 09:31:02;;;;;;;3.80;2.10;;;;;;;;;;5062606;27;89759;-71
2023/12/15 09:33:30;;;;;;;6.47;2.87;;;;;;;;;;5060351;27;89656;-73
2023/12/15 09:35:59;;;;;;;4.13;2.37;;;;;;;;;;5055798;27;87542;-73
2023/12/15 09:38:29;;;;;;;4.70;2.80;;;;;;;;;;5067987;27;87906;-72
2023/12/15 09:40:57;;;;;;;5.03;2.60;;;;;;;;;;5062113;27;90459;-73
2023/12/15 09:43:25;;;;;;;4.00;1.93;;;;;;;;;;5061615;27;89177;-71
2023/12/15 09:45:54;;;;;;;4.03;2.03;;;;;;;;;;5062026;27;89209;-71
2023/12/15 09:48:23;;;;;;;2.30;2.10;;;;;;;;;;5058843;27;87690;-71
2023/12/15 09:50:52;;;;;;;3.60;2.40;;;;;;;;;;5063336;27;89838;-72
2023/12/15 09:53:22;;;;;;;3.27;2.80;;;;;;;;;;5059890;27;91955;-72
2023/12/15 09:55:50;;;;;;;3.43;2.30;;;;;;;;;;5059204;27;89919;-72
2023/12/15 09:58:19;;;;;;;2.27;1.77;;;;;;;;;;5060885;27;87519;-73
2023/12/15 10:00:48;;;;;;;2.33;1.87;;;;;;;;;;5067673;27;88470;-72
2023/12/15 10:03:16;;;;;;;3.40;2.03;;;;;;;;;;5065635;27;89168;-72
2023/12/15 10:05:46;;;;;;;6.50;2.63;;;;;;;;;;5062292;27;89246;-72
2023/12/15 10:08:15;;;;;;;3.23;1.90;;;;;;;;;;5063335;27;87921;-72
2023/12/15 10:10:43;;;;;;;2.60;1.70;;;;;;;;;;5061537;27;89583;-71
2023/12/15 10:13:12;;;;;;;3.73;2.57;;;;;;;;;;5062591;27;89271;-72
2023/12/15 10:15:40;;;;;;;3.93;2.13;;;;;;;;;;5063788;27;88751;-73
2023/12/15 10:18:08;;;;;;;1.97;1.73;;;;;;;;;;5069958;27;87933;-71
2023/12/15 10:20:37;;;;;;;2.73;2.20;;;;;;;;;;5062038;27;89578;-71
2023/12/15 10:23:07;;;;;;;4.47;1.40;;;;;;;;;;5062187;27;89041;-72
2023/12/15 10:25:36;;;;;;;2.77;2.00;;;;;;;;;;5062569;27;89287;-71
2023/12/15 10:28:05;;;;;;;3.33;1.87;;;;;;;;;;5057064;27;87666;-70
2023/12/15 10:30:33;;;;;;;2.37;1.53;;;;;;;;;;5069824;27;89689;-72
2023/12/15 10:33:02;;;;;;;3.57;2.03;;;;;;;;;;5066423;27;89198;-73
2023/12/15 10:35:31;;;;;;;2.43;1.77;;;;;;;;;;5062953;27;88866;-74
2023/12/15 10:38:01;;;;;;;2.97;1.67;;;;;;;;;;5064003;27;87721;-74
2023/12/15 10:40:32;;;;;;;1.63;1.17;;;;;;;;;;5070752;27;89614;-72
2023/12/15 10:43:01;;;;;;;3.07;1.70;;;;;;;;;;5059236;27;90392;-70
2023/12/15 10:45:29;;;;;;;1.37;1.27;;;;;;;;;;5056888;27;89828;-69
2023/12/15 10:47:58;;;;;;;2.33;1.50;;;;;;;;;;5062154;27;88263;-71
2023/12/15 10:50:28;;;;;;;5.37;1.80;;;;;;;;;;5063752;27;89433;-70
2023/12/15 10:52:57;;;;;;;2.33;1.47;;;;;;;;;;5054808;27;87884;-72
2023/12/15 10:55:28;;;;;;;1.80;1.17;;;;;;;;;;5060116;27;88682;-74
2023/12/15 10:58:01;;;;;;;1.43;1.30;;;;;;;;;;5061766;27;88434;-73
2023/12/15 11:00:32;;;;;;;3.83;1.37;;;;;;;;;;5062989;27;88373;-74
2023/12/15 11:03:01;;;;;;;3.77;2.03;;;;;;;;;;5071302;27;88853;-72
2023/12/15 11:05:29;;;;;;;4.30;1.77;;;;;;;;;;5060237;27;88870;-72
2023/12/15 11:08:07;;;;;;;3.47;2.07;;;;;;;;;;5061745;27;87956;-71
2023/12/15 11:10:36;;;;;;;1.43;1.33;;;;;;;;;;5062886;27;89682;-72
2023/12/15 11:13:06;;;;;;;3.23;1.40;;;;;;;;;;5065331;27;88887;-73
2023/12/15 11:15:34;;;;;;;4.43;1.27;;;;;;;;;;5062470;27;89293;-73
2023/12/15 11:18:04;;;;;;;3.77;1.30;;;;;;;;;;5055502;27;87745;-73
2023/12/15 11:20:40;;;;;;;3.00;1.43;;;;;;;;;;5067538;27;89597;-72
2023/12/15 11:23:08;;;;;;;4.13;1.77;;;;;;;;;;5063486;27;89089;-74
2023/12/15 11:25:37;;;;;;;2.97;2.30;;;;;;;;;;5068043;27;89030;-72
2023/12/15 11:28:08;;;;;;;3.33;2.27;;;;;;;;;;5078294;27;87578;-73
2023/12/15 11:30:39;;;;;;;7.47;3.03;;;;;;;;;;5045976;27;89704;-72
2023/12/15 11:33:26;;;;;;;5.70;2.53;;;;;;;;;;5068979;27;90132;-72
2023/12/15 11:35:55;;;;;;;6.03;2.87;;;;;;;;;;5067232;27;89059;-73
2023/12/15 11:38:23;;;;;;;5.20;2.60;;;;;;;;;;5061888;27;88291;-73
2023/12/15 11:40:52;;;;;;;3.60;2.43;;;;;;;;;;5063984;27;89585;-73
2023/12/15 11:43:23;;;;;;;5.33;2.40;;;;;;;;;;5070625;27;89126;-73
2023/12/15 11:45:53;;;;;;;3.70;2.53;;;;;;;;;;5071536;27;88894;-74
2023/12/15 11:48:23;;;;;;;4.13;2.67;;;;;;;;;;5061162;27;87673;-74
2023/12/15 11:50:51;;;;;;;3.70;2.80;;;;;;;;;;5065833;27;89736;-73
2023/12/15 11:53:22;;;;;;;4.33;2.70;;;;;;;;;;5061228;27;89036;-72
2023/12/15 11:55:52;;;;;;;5.27;2.87;;;;;;;;;;5068596;27;87903;-73
2023/12/15 11:58:22;;;;;;;5.97;3.10;;;;;;;;;;5069640;27;87870;-77
2023/12/15 12:00:50;;;;;;;6.80;3.20;;;;;;;;;;5068265;27;89654;-75
2023/12/15 12:03:19;;;;;;;3.87;2.73;;;;;;;;;;5067481;27;89087;-75
2023/12/15 12:05:53;;;;;;;7.77;3.73;;;;;;;;;;5072168;27;88955;-75
2023/12/15 12:08:24;;;;;;;5.17;3.47;;;;;;;;;;5058742;27;87550;-73
2023/12/15 12:10:54;;;;;;;5.03;3.13;;;;;;;;;;5061943;27;89736;-73
2023/12/15 12:13:25;;;;;;;6.23;4.13;;;;;;;;;;5066434;27;89286;-74
2023/12/15 12:15:54;;;;;;;6.13;3.60;;;;;;;;;;5064112;27;88821;-73
2023/12/15 12:18:23;;;;;;;7.83;4.30;;;;;;;;;;5060091;27;88189;-73
2023/12/15 12:20:54;;;;;;;9.47;3.97;;;;;;;;;;5059351;27;89590;-73
2023/12/15 12:23:24;;;;;;;6.47;3.87;;;;;;;;;;5052366;27;90004;-73
2023/12/15 12:26:08;;;;;;;8.33;4.20;;;;;;;;;;5058822;27;89934;-73
2023/12/15 12:28:41;;;;;;;3.93;2.90;;;;;;;;;;5060399;27;87659;-73
2023/12/15 12:31:09;;;;;;;7.40;4.07;;;;;;;;;;5061966;27;89684;-72
2023/12/15 12:33:38;;;;;;;5.23;3.57;;;;;;;;;;5061518;27;89360;-73
2023/12/15 12:36:08;;;;;;;6.27;3.67;;;;;;;;;;5060334;27;88879;-72
2023/12/15 12:38:36;;;;;;;10.83;4.37;;;;;;;;;;5061038;27;87483;-72
2023/12/15 12:41:06;;;;;;;4.33;3.50;;;;;;;;;;5061188;27;89652;-73
2023/12/15 12:43:37;;;;;;;6.33;3.80;;;;;;;;;;5061091;27;89169;-73
2023/12/15 12:46:06;;;;;;;9.70;3.97;;;;;;;;;;5060522;27;89676;-72
2023/12/15 12:48:35;;;;;;;5.60;3.50;;;;;;;;;;5059628;27;87928;-72
2023/12/15 12:51:04;;;;;;;5.57;3.47;;;;;;;;;;5059993;27;89657;-73
2023/12/15 12:53:32;;;;;;;5.60;3.33;;;;;;;;;;5060065;27;89172;-72
2023/12/15 12:56:01;;;;;;;5.77;3.70;;;;;;;;;;5060794;27;88977;-73
2023/12/15 12:58:30;;;;;;;4.67;3.10;;;;;;;;;;5061496;27;87583;-73
2023/12/15 13:00:59;;;;;;;5.73;2.90;;;;;;;;;;5059387;27;89723;-73
2023/12/15 13:03:29;;;;;;;3.17;2.63;;;;;;;;;;5063046;27;89261;-73
2023/12/15 13:05:57;;;;;;;5.03;3.17;;;;;;;;;;5064397;27;88425;-73
2023/12/15 13:08:26;;;;;;;6.93;3.07;;;;;;;;;;5064617;27;87600;-73
2023/12/15 13:10:55;;;;;;;3.47;3.17;;;;;;;;;;5064333;27;88537;-73
2023/12/15 13:13:24;;;;;;;4.47;2.47;;;;;;;;;;5063755;27;90022;-73
2023/12/15 13:15:52;;;;;;;4.50;2.97;;;;;;;;;;5063478;27;89786;-73
2023/12/15 13:18:21;;;;;;;8.03;3.43;;;;;;;;;;5063860;27;87628;-73
2023/12/15 13:20:51;;;;;;;2.57;2.20;;;;;;;;;;5063455;27;89682;-73
2023/12/15 13:23:22;;;;;;;8.23;2.63;;;;;;;;;;5064298;27;89252;-73
2023/12/15 13:25:51;;;;;;;3.90;2.43;;;;;;;;;;5064326;27;89207;-73
2023/12/15 13:28:20;;;;;;;5.20;2.37;;;;;;;;;;5063896;27;87615;-73
2023/12/15 13:30:48;;;;;;;2.63;2.00;;;;;;;;;;5064092;27;88315;-73
2023/12/15 13:33:18;;;;;;;3.23;2.30;;;;;;;;;;5063535;27;88028;-73
2023/12/15 13:35:47;;;;;;;3.80;2.03;;;;;;;;;;5063325;27;88770;-73
2023/12/15 13:38:18;;;;;;;3.60;1.90;;;;;;;;;;5063394;27;87924;-73
2023/12/15 13:40:47;;;;;;;5.23;2.17;;;;;;;;;;5062802;27;89670;-73
2023/12/15 13:43:15;;;;;;;2.83;2.53;;;;;;;;;;5063878;27;89113;-73
2023/12/15 13:45:43;;;;;;;4.60;2.33;;;;;;;;;;5063796;27;89512;-73
2023/12/15 13:48:21;;;;;;;3.47;2.30;;;;;;;;;;5063700;27;87548;-73
2023/12/15 13:50:49;;;;;;;2.57;1.97;;;;;;;;;;5063826;27;89692;-73
2023/12/15 13:53:19;;;;;;;5.73;2.37;;;;;;;;;;5062744;27;89211;-73
2023/12/15 13:55:47;;;;;;;3.20;2.33;;;;;;;;;;5063993;27;88887;-73
2023/12/15 13:58:16;;;;;;;4.57;2.50;;;;;;;;;;5062883;27;87647;-73
2023/12/15 14:00:45;;;;;;;4.90;2.37;;;;;;;;;;5062415;27;89605;-73
2023/12/15 14:03:13;;;;;;;2.77;2.30;;;;;;;;;;5062862;27;90081;-73
2023/12/15 14:05:42;;;;;;;6.43;2.37;;;;;;;;;;5063081;27;90501;-73
2023/12/15 14:08:11;;;;;;;5.00;2.83;;;;;;;;;;5063871;27;87473;-70
2023/12/15 14:10:49;;;;;;;5.93;2.53;;;;;;;;;;5059765;27;89487;-73
2023/12/15 14:13:17;;;;;;;8.23;3.07;;;;;;;;;;5041931;27;89368;-73
2023/12/15 14:15:46;;;;;;;5.77;2.70;;;;;;;;;;5042047;28;88751;-73
2023/12/15 14:18:15;;;;;;;4.57;2.40;;;;;;;;;;5042352;28;87472;-73
2023/12/15 14:20:45;;;;;;;4.57;2.70;;;;;;;;;;5042818;28;90064;-73
2023/12/15 14:23:14;;;;;;;4.27;2.17;;;;;;;;;;5042327;28;89167;-72
2023/12/15 14:25:44;;;;;;;4.80;2.80;;;;;;;;;;5042570;28;87728;-73
2023/12/15 14:28:13;;;;;;;3.57;2.53;;;;;;;;;;5041945;28;88236;-72
2023/12/15 14:30:42;;;;;;;4.13;2.70;;;;;;;;;;5041796;28;89805;-73
2023/12/15 14:33:10;;;;;;;3.17;2.13;;;;;;;;;;5042114;28;89139;-73
2023/12/15 14:35:39;;;;;;;5.97;2.33;;;;;;;;;;5041946;28;88918;-72
2023/12/15 14:38:09;;;;;;;9.53;2.10;;;;;;;;;;5042790;28;87483;-73
2023/12/15 14:40:37;;;;;;;3.67;2.53;;;;;;;;;;5041999;28;89572;-72
2023/12/15 14:43:08;;;;;;;4.20;2.60;;;;;;;;;;5041098;28;89160;-73
2023/12/15 14:45:38;;;;;;;3.20;1.63;;;;;;;;;;5042094;28;88872;-72
2023/12/15 14:48:07;;;;;;;5.40;2.30;;;;;;;;;;5041794;28;87611;-71